Time;durP1;ratioP1;P1;durP2;ratioP2;P2;SDS_P1;SDS_P2;PMS_P1;PMS_P2;Temp;Humidity;BMP_temperature;BMP_pressure;BME280_temperature;BME280_humidity;BME280_pressure;Samples;Min_cycle;Max_cycle;Signal;HPM_P1;HPM_P2
2024/01/13 00:00:00;;;;;;;;;;;;;;;;;;5022462;28;19928;-75
2024/01/13 00:02:25;;;;;;;;;;;;;;;;;;5028037;28;19921;-75
2024/01/13 00:04:50;;;;;;;;;;;;;;;;;;5021649;28;19961;-75
2024/01/13 00:07:16;;;;;;;;;;;;;;;;;;5023584;28;19921;-75
2024/01/13 00:09:41;;;;;;;;;;;;;;;;;;5027417;28;19924;-75
2024/01/13 00:12:06;;;;;;;;;;;;;;;;;;5026963;28;19931;-76
2024/01/13 00:14:31;;;;;;;;;;;;;;;;;;5026414;28;19921;-75
2024/01/13 00:16:56;;;;;;;;;;;;;;;;;;5026564;28;19925;-75
2024/01/13 00:19:21;;;;;;;;;;;;;;;;;;5026861;28;19924;-75
2024/01/13 00:21:46;;;;;;;;;;;;;;;;;;5027360;28;20377;-75
2024/01/13 00:24:11;;;;;;;;;;;;;;;;;;5026461;28;19955;-75
2024/01/13 00:26:37;;;;;;;;;;;;;;;;;;5026993;28;19925;-75
2024/01/13 00:29:02;;;;;;;;;;;;;;;;;;5025479;28;20182;-75
2024/01/13 00:31:27;;;;;;;;;;;;;;;;;;5027169;28;19924;-75
2024/01/13 00:33:52;;;;;;;;;;;;;;;;;;5027964;28;19917;-75
2024/01/13 00:36:17;;;;;;;;;;;;;;;;;;5029310;28;19927;-75
2024/01/13 00:38:42;;;;;;;;;;;;;;;;;;5032966;28;20052;-75
2024/01/13 00:41:07;;;;;;;;;;;;;;;;;;5030393;28;20406;-75
2024/01/13 00:43:32;;;;;;;;;;;;;;;;;;5035899;28;19931;-75
2024/01/13 00:45:57;;;;;;;;;;;;;;;;;;5033505;28;19956;-75
2024/01/13 00:48:23;;;;;;;;;;;;;;;;;;5029752;28;20267;-75
2024/01/13 00:50:48;;;;;;;;;;;;;;;;;;5030765;28;19993;-75
2024/01/13 00:53:13;;;;;;;;;;;;;;;;;;5027906;28;19924;-75
2024/01/13 00:55:38;;;;;;;;;;;;;;;;;;5040842;28;19921;-75
2024/01/13 00:58:03;;;;;;;;;;;;;;;;;;5031212;28;20286;-75
2024/01/13 01:00:28;;;;;;;;;;;;;;;;;;5032096;28;19967;-75
2024/01/13 01:02:53;;;;;;;;;;;;;;;;;;5030461;28;19928;-75
2024/01/13 01:05:18;;;;;;;;;;;;;;;;;;5031899;28;19991;-75
2024/01/13 01:07:43;;;;;;;;;;;;;;;;;;5032044;28;19921;-75
2024/01/13 01:10:08;;;;;;;;;;;;;;;;;;5031297;28;19956;-75
2024/01/13 01:12:34;;;;;;;;;;;;;;;;;;5031445;28;19928;-75
2024/01/13 01:14:59;;;;;;;;;;;;;;;;;;5031839;28;19917;-75
2024/01/13 01:17:24;;;;;;;;;;;;;;;;;;5034494;28;19921;-75
2024/01/13 01:19:49;;;;;;;;;;;;;;;;;;5033109;28;20271;-75
2024/01/13 01:22:14;;;;;;;;;;;;;;;;;;5032041;28;19917;-75
2024/01/13 01:24:39;;;;;;;;;;;;;;;;;;5032201;28;20402;-75
2024/01/13 01:27:04;;;;;;;;;;;;;;;;;;5031650;28;19917;-75
2024/01/13 01:29:29;;;;;;;;;;;;;;;;;;5032021;28;19917;-75
2024/01/13 01:31:54;;;;;;;;;;;;;;;;;;5038165;28;19928;-75
2024/01/13 01:34:19;;;;;;;;;;;;;;;;;;5031391;28;19917;-75
2024/01/13 01:36:44;;;;;;;;;;;;;;;;;;5038261;28;19917;-75
2024/01/13 01:39:10;;;;;;;;;;;;;;;;;;5034674;28;19917;-75
2024/01/13 01:41:35;;;;;;;;;;;;;;;;;;5032999;28;19917;-75
2024/01/13 01:44:00;;;;;;;;;;;;;;;;;;5035183;28;19943;-76
2024/01/13 01:46:25;;;;;;;;;;;;;;;;;;5031304;28;19971;-75
2024/01/13 01:48:50;;;;;;;;;;;;;;;;;;5031325;28;19939;-76
2024/01/13 01:51:15;;;;;;;;;;;;;;;;;;5029931;28;19972;-75
2024/01/13 01:53:40;;;;;;;;;;;;;;;;;;5036399;28;20405;-75
2024/01/13 01:56:06;;;;;;;;;;;;;;;;;;5033907;28;19924;-76
2024/01/13 01:58:31;;;;;;;;;;;;;;;;;;5029854;28;20000;-75
2024/01/13 02:00:56;;;;;;;;;;;;;;;;;;5031711;28;20332;-75
2024/01/13 02:03:21;;;;;;;;;;;;;;;;;;5031115;28;19925;-75
2024/01/13 02:05:47;;;;;;;;;;;;;;;;;;5031617;28;19980;-75
2024/01/13 02:08:12;;;;;;;;;;;;;;;;;;5048361;28;19924;-75
2024/01/13 02:10:37;;;;;;;;;;;;;;;;;;5038639;28;19948;-75
2024/01/13 02:13:02;;;;;;;;;;;;;;;;;;5031156;28;20392;-75
2024/01/13 02:15:27;;;;;;;;;;;;;;;;;;5039640;28;20282;-75
2024/01/13 02:17:52;;;;;;;;;;;;;;;;;;5037450;28;20412;-75
2024/01/13 02:20:17;;;;;;;;;;;;;;;;;;5032043;28;19921;-74
2024/01/13 02:22:42;;;;;;;;;;;;;;;;;;5032548;28;19921;-74
2024/01/13 02:25:07;;;;;;;;;;;;;;;;;;5029377;28;20417;-75
2024/01/13 02:27:33;;;;;;;;;;;;;;;;;;5039021;28;19924;-75
2024/01/13 02:29:58;;;;;;;;;;;;;;;;;;5030767;28;19917;-75
2024/01/13 02:32:23;;;;;;;;;;;;;;;;;;5046568;28;20133;-75
2024/01/13 02:34:48;;;;;;;;;;;;;;;;;;5038659;28;19925;-74
2024/01/13 02:37:13;;;;;;;;;;;;;;;;;;5031062;28;19917;-74
2024/01/13 02:39:38;;;;;;;;;;;;;;;;;;5037546;28;19921;-75
2024/01/13 02:42:03;;;;;;;;;;;;;;;;;;5030014;28;19924;-75
2024/01/13 02:44:28;;;;;;;;;;;;;;;;;;5038314;28;19940;-74
2024/01/13 02:46:53;;;;;;;;;;;;;;;;;;5038556;28;20298;-74
2024/01/13 02:49:18;;;;;;;;;;;;;;;;;;5038032;28;19916;-75
2024/01/13 02:51:43;;;;;;;;;;;;;;;;;;5030272;28;19992;-74
2024/01/13 02:54:08;;;;;;;;;;;;;;;;;;5029642;28;20359;-73
2024/01/13 02:56:34;;;;;;;;;;;;;;;;;;5042451;28;20437;-74
2024/01/13 02:58:59;;;;;;;;;;;;;;;;;;5041754;28;19923;-74
2024/01/13 03:01:24;;;;;;;;;;;;;;;;;;5029429;28;20008;-74
2024/01/13 03:03:49;;;;;;;;;;;;;;;;;;5029471;28;19925;-74
2024/01/13 03:06:14;;;;;;;;;;;;;;;;;;5029199;28;20023;-74
2024/01/13 03:08:40;;;;;;;;;;;;;;;;;;5029771;28;20155;-74
2024/01/13 03:11:05;;;;;;;;;;;;;;;;;;5037971;28;19920;-74
2024/01/13 03:13:30;;;;;;;;;;;;;;;;;;5046844;28;20335;-74
2024/01/13 03:15:55;;;;;;;;;;;;;;;;;;5035488;28;20360;-74
2024/01/13 03:18:20;;;;;;;;;;;;;;;;;;5028143;28;19921;-74
2024/01/13 03:20:45;;;;;;;;;;;;;;;;;;5035095;28;19916;-74
2024/01/13 03:23:10;;;;;;;;;;;;;;;;;;5048187;28;19925;-75
2024/01/13 03:25:35;;;;;;;;;;;;;;;;;;5041925;28;20400;-74
2024/01/13 03:28:00;;;;;;;;;;;;;;;;;;5033931;28;19917;-74
2024/01/13 03:30:26;;;;;;;;;;;;;;;;;;5029282;28;20489;-75
2024/01/13 03:32:51;;;;;;;;;;;;;;;;;;5030004;28;19924;-75
2024/01/13 03:35:16;;;;;;;;;;;;;;;;;;5029179;28;19921;-74
2024/01/13 03:37:41;;;;;;;;;;;;;;;;;;5037620;28;19927;-74
2024/01/13 03:40:06;;;;;;;;;;;;;;;;;;5028150;28;19920;-76
2024/01/13 03:42:31;;;;;;;;;;;;;;;;;;5028420;28;19917;-75
2024/01/13 03:44:57;;;;;;;;;;;;;;;;;;5034364;28;19921;-75
2024/01/13 03:47:22;;;;;;;;;;;;;;;;;;5037655;28;19917;-75
2024/01/13 03:49:47;;;;;;;;;;;;;;;;;;5029144;28;19949;-74
2024/01/13 03:52:12;;;;;;;;;;;;;;;;;;5036885;28;19918;-75
2024/01/13 03:54:37;;;;;;;;;;;;;;;;;;5029000;28;19917;-74
2024/01/13 03:57:02;;;;;;;;;;;;;;;;;;5034647;28;19916;-75
2024/01/13 03:59:27;;;;;;;;;;;;;;;;;;5047000;28;19943;-75
2024/01/13 04:01:52;;;;;;;;;;;;;;;;;;5029301;28;19917;-74
2024/01/13 04:04:17;;;;;;;;;;;;;;;;;;5036891;28;20320;-75
2024/01/13 04:06:42;;;;;;;;;;;;;;;;;;5036797;28;19974;-74
2024/01/13 04:09:10;;;;;;;;;;;;;;;;;;5044659;28;20011;-76
2024/01/13 04:11:35;;;;;;;;;;;;;;;;;;5029999;28;20377;-74
2024/01/13 04:14:00;;;;;;;;;;;;;;;;;;5039094;28;19921;-74
2024/01/13 04:16:25;;;;;;;;;;;;;;;;;;5043106;28;19917;-74
2024/01/13 04:18:51;;;;;;;;;;;;;;;;;;5032501;28;20174;-75
2024/01/13 04:21:16;;;;;;;;;;;;;;;;;;5033308;28;20438;-75
2024/01/13 04:23:41;;;;;;;;;;;;;;;;;;5041071;28;20064;-74
2024/01/13 04:26:06;;;;;;;;;;;;;;;;;;5030834;28;19954;-75
2024/01/13 04:28:31;;;;;;;;;;;;;;;;;;5034186;28;19921;-75
2024/01/13 04:30:56;;;;;;;;;;;;;;;;;;5040199;28;20290;-74
2024/01/13 04:33:21;;;;;;;;;;;;;;;;;;5040732;28;19928;-74
2024/01/13 04:35:46;;;;;;;;;;;;;;;;;;5032790;28;19918;-74
2024/01/13 04:38:11;;;;;;;;;;;;;;;;;;5047257;28;19960;-75
2024/01/13 04:40:37;;;;;;;;;;;;;;;;;;5033931;28;20378;-75
2024/01/13 04:43:02;;;;;;;;;;;;;;;;;;5041006;28;19967;-74
2024/01/13 04:45:27;;;;;;;;;;;;;;;;;;5039006;28;20495;-75
2024/01/13 04:47:52;;;;;;;;;;;;;;;;;;5032183;28;19921;-75
2024/01/13 04:50:17;;;;;;;;;;;;;;;;;;5030813;28;20055;-75
2024/01/13 04:52:42;;;;;;;;;;;;;;;;;;5034056;28;19950;-74
2024/01/13 04:55:07;;;;;;;;;;;;;;;;;;5044221;28;20162;-74
2024/01/13 04:57:33;;;;;;;;;;;;;;;;;;5043898;28;19939;-74
2024/01/13 04:59:58;;;;;;;;;;;;;;;;;;5044363;28;20374;-74
2024/01/13 05:02:23;;;;;;;;;;;;;;;;;;5028443;28;19921;-74
2024/01/13 05:04:48;;;;;;;;;;;;;;;;;;5035525;28;19936;-74
2024/01/13 05:07:13;;;;;;;;;;;;;;;;;;5036782;28;19971;-75
2024/01/13 05:09:39;;;;;;;;;;;;;;;;;;5031625;28;20393;-74
2024/01/13 05:12:05;;;;;;;;;;;;;;;;;;5040533;28;20301;-74
2024/01/13 05:14:30;;;;;;;;;;;;;;;;;;5043643;28;19923;-74
2024/01/13 05:16:55;;;;;;;;;;;;;;;;;;5032090;28;19996;-75
2024/01/13 05:19:20;;;;;;;;;;;;;;;;;;5031473;28;20007;-75
2024/01/13 05:21:45;;;;;;;;;;;;;;;;;;5039179;28;20012;-75
2024/01/13 05:24:11;;;;;;;;;;;;;;;;;;5039624;28;19925;-75
2024/01/13 05:26:38;;;;;;;;;;;;;;;;;;5040601;28;20144;-75
2024/01/13 05:29:03;;;;;;;;;;;;;;;;;;5038015;28;20394;-75
2024/01/13 05:31:28;;;;;;;;;;;;;;;;;;5031786;28;19921;-74
2024/01/13 05:33:53;;;;;;;;;;;;;;;;;;5035606;28;19917;-74
2024/01/13 05:36:18;;;;;;;;;;;;;;;;;;5035240;28;20285;-75
2024/01/13 05:38:43;;;;;;;;;;;;;;;;;;5033929;28;19925;-74
2024/01/13 05:41:08;;;;;;;;;;;;;;;;;;5045626;28;19932;-75
2024/01/13 05:43:33;;;;;;;;;;;;;;;;;;5032894;28;19917;-75
2024/01/13 05:45:58;;;;;;;;;;;;;;;;;;5039016;28;19975;-75
2024/01/13 05:48:24;;;;;;;;;;;;;;;;;;5038680;28;19964;-74
2024/01/13 05:50:49;;;;;;;;;;;;;;;;;;5031849;28;19920;-75
2024/01/13 05:53:14;;;;;;;;;;;;;;;;;;5037430;28;20159;-74
2024/01/13 05:55:39;;;;;;;;;;;;;;;;;;5048043;28;19959;-75
2024/01/13 05:58:05;;;;;;;;;;;;;;;;;;5035961;28;20362;-75
2024/01/13 06:00:30;;;;;;;;;;;;;;;;;;5043926;28;19917;-75
2024/01/13 06:02:57;;;;;;;;;;;;;;;;;;5030349;28;19991;-75
2024/01/13 06:05:22;;;;;;;;;;;;;;;;;;5035331;28;20455;-75
2024/01/13 06:07:48;;;;;;;;;;;;;;;;;;5043473;28;19925;-74
2024/01/13 06:10:13;;;;;;;;;;;;;;;;;;5035582;28;19983;-74
2024/01/13 06:12:38;;;;;;;;;;;;;;;;;;5037418;28;19921;-74
2024/01/13 06:15:03;;;;;;;;;;;;;;;;;;5039087;28;20390;-74
2024/01/13 06:17:28;;;;;;;;;;;;;;;;;;5033019;28;19999;-75
2024/01/13 06:19:53;;;;;;;;;;;;;;;;;;5030545;28;20302;-74
2024/01/13 06:22:18;;;;;;;;;;;;;;;;;;5038436;28;19917;-74
2024/01/13 06:24:43;;;;;;;;;;;;;;;;;;5039214;28;20263;-75
2024/01/13 06:27:09;;;;;;;;;;;;;;;;;;5038821;28;20403;-74
2024/01/13 06:29:34;;;;;;;;;;;;;;;;;;5047522;28;19916;-75
2024/01/13 06:31:59;;;;;;;;;;;;;;;;;;5040114;28;20443;-74
2024/01/13 06:34:24;;;;;;;;;;;;;;;;;;5045436;28;19916;-75
2024/01/13 06:36:49;;;;;;;;;;;;;;;;;;5030919;28;20301;-74
2024/01/13 06:39:14;;;;;;;;;;;;;;;;;;5028895;28;19955;-74
2024/01/13 06:41:39;;;;;;;;;;;;;;;;;;5038975;28;20000;-74
2024/01/13 06:44:04;;;;;;;;;;;;;;;;;;5034656;28;19960;-75
2024/01/13 06:46:30;;;;;;;;;;;;;;;;;;5033644;28;20038;-75
2024/01/13 06:48:55;;;;;;;;;;;;;;;;;;5041609;28;19963;-74
2024/01/13 06:51:20;;;;;;;;;;;;;;;;;;5030093;28;20054;-75
2024/01/13 06:53:45;;;;;;;;;;;;;;;;;;5038567;28;20011;-74
2024/01/13 06:56:10;;;;;;;;;;;;;;;;;;5029979;28;19917;-75
2024/01/13 06:58:35;;;;;;;;;;;;;;;;;;5047178;28;19917;-75
2024/01/13 07:01:00;;;;;;;;;;;;;;;;;;5033534;28;19917;-75
2024/01/13 07:03:25;;;;;;;;;;;;;;;;;;5030476;28;19918;-75
2024/01/13 07:05:50;;;;;;;;;;;;;;;;;;5032828;28;19928;-74
2024/01/13 07:08:16;;;;;;;;;;;;;;;;;;5035056;28;19917;-75
2024/01/13 07:10:41;;;;;;;;;;;;;;;;;;5039511;28;19916;-75
2024/01/13 07:13:09;;;;;;;;;;;;;;;;;;5037381;28;19996;-75
2024/01/13 07:15:34;;;;;;;;;;;;;;;;;;5031963;28;19924;-74
2024/01/13 07:17:59;;;;;;;;;;;;;;;;;;5041220;28;19924;-74
2024/01/13 07:20:24;;;;;;;;;;;;;;;;;;5041012;28;19920;-74
2024/01/13 07:22:50;;;;;;;;;;;;;;;;;;5033081;28;19920;-74
2024/01/13 07:25:15;;;;;;;;;;;;;;;;;;5035496;28;20015;-74
2024/01/13 07:27:40;;;;;;;;;;;;;;;;;;5029673;28;20004;-73
2024/01/13 07:30:06;;;;;;;;;;;;;;;;;;5037279;28;19917;-74
2024/01/13 07:32:31;;;;;;;;;;;;;;;;;;5029993;28;19917;-74
2024/01/13 07:34:56;;;;;;;;;;;;;;;;;;5035222;28;20020;-74
2024/01/13 07:37:21;;;;;;;;;;;;;;;;;;5029260;28;20016;-74
2024/01/13 07:39:46;;;;;;;;;;;;;;;;;;5038902;28;19971;-74
2024/01/13 07:42:11;;;;;;;;;;;;;;;;;;5035750;28;20012;-74
2024/01/13 07:44:36;;;;;;;;;;;;;;;;;;5044780;28;20357;-74
2024/01/13 07:47:03;;;;;;;;;;;;;;;;;;5038343;28;19928;-74
2024/01/13 07:49:28;;;;;;;;;;;;;;;;;;5037060;28;20219;-74
2024/01/13 07:51:54;;;;;;;;;;;;;;;;;;5037710;28;19917;-74
2024/01/13 07:54:19;;;;;;;;;;;;;;;;;;5037125;28;19975;-74
2024/01/13 07:56:44;;;;;;;;;;;;;;;;;;5045665;28;20340;-74
2024/01/13 07:59:09;;;;;;;;;;;;;;;;;;5029385;28;19917;-74
2024/01/13 08:01:34;;;;;;;;;;;;;;;;;;5031126;28;20337;-74
2024/01/13 08:03:59;;;;;;;;;;;;;;;;;;5040009;28;19921;-74
2024/01/13 08:06:24;;;;;;;;;;;;;;;;;;5042323;28;19928;-75
2024/01/13 08:08:50;;;;;;;;;;;;;;;;;;5027141;28;19925;-75
2024/01/13 08:11:15;;;;;;;;;;;;;;;;;;5023170;28;19980;-75
2024/01/13 08:13:40;;;;;;;;;;;;;;;;;;5019784;28;19922;-74
2024/01/13 08:16:05;;;;;;;;;;;;;;;;;;5031327;28;19971;-74
2024/01/13 08:18:30;;;;;;;;;;;;;;;;;;5026951;28;19925;-75
2024/01/13 08:20:55;;;;;;;;;;;;;;;;;;5024585;28;19986;-75
2024/01/13 08:23:20;;;;;;;;;;;;;;;;;;5023395;28;19927;-75
2024/01/13 08:25:45;;;;;;;;;;;;;;;;;;5032198;28;19932;-75
2024/01/13 08:28:10;;;;;;;;;;;;;;;;;;5020556;28;20341;-76
2024/01/13 08:30:36;;;;;;;;;;;;;;;;;;5029732;28;20322;-75
2024/01/13 08:33:01;;;;;;;;;;;;;;;;;;5024445;28;19932;-75
2024/01/13 08:35:26;;;;;;;;;;;;;;;;;;5020824;28;19929;-75
2024/01/13 08:37:52;;;;;;;;;;;;;;;;;;5029893;28;19925;-75
2024/01/13 08:40:17;;;;;;;;;;;;;;;;;;5026547;28;20445;-75
2024/01/13 08:42:43;;;;;;;;;;;;;;;;;;5026782;28;19925;-75
2024/01/13 08:45:08;;;;;;;;;;;;;;;;;;5026795;28;20429;-75
2024/01/13 08:47:33;;;;;;;;;;;;;;;;;;5024698;28;20354;-75
2024/01/13 08:49:58;;;;;;;;;;;;;;;;;;5033767;28;20306;-75
2024/01/13 08:52:23;;;;;;;;;;;;;;;;;;5036204;28;20428;-75
2024/01/13 08:54:48;;;;;;;;;;;;;;;;;;5023341;28;19971;-75
2024/01/13 08:57:13;;;;;;;;;;;;;;;;;;5043094;28;20013;-75
2024/01/13 08:59:38;;;;;;;;;;;;;;;;;;5022655;28;19925;-75
2024/01/13 09:02:03;;;;;;;;;;;;;;;;;;5022031;28;20036;-76
2024/01/13 09:04:28;;;;;;;;;;;;;;;;;;5028232;28;20082;-75
2024/01/13 09:06:54;;;;;;;;;;;;;;;;;;5043205;28;20341;-75
2024/01/13 09:09:19;;;;;;;;;;;;;;;;;;5041177;28;19931;-75
2024/01/13 09:11:46;;;;;;;;;;;;;;;;;;5033292;28;19922;-75
2024/01/13 09:14:11;;;;;;;;;;;;;;;;;;5019333;28;20079;-75
2024/01/13 09:16:36;;;;;;;;;;;;;;;;;;5025303;28;20422;-75
2024/01/13 09:19:01;;;;;;;;;;;;;;;;;;5028983;28;19922;-75
2024/01/13 09:21:26;;;;;;;;;;;;;;;;;;5037019;28;19925;-75
2024/01/13 09:23:52;;;;;;;;;;;;;;;;;;5042771;28;19948;-75
2024/01/13 09:26:17;;;;;;;;;;;;;;;;;;5029835;28;19948;-75
2024/01/13 09:28:43;;;;;;;;;;;;;;;;;;5026281;28;19921;-75
2024/01/13 09:31:08;;;;;;;;;;;;;;;;;;5024444;28;20293;-75
2024/01/13 09:33:33;;;;;;;;;;;;;;;;;;5024884;28;19951;-75
2024/01/13 09:35:58;;;;;;;;;;;;;;;;;;5028707;28;20374;-74
2024/01/13 09:38:23;;;;;;;;;;;;;;;;;;5033143;28;19925;-75
2024/01/13 09:40:49;;;;;;;;;;;;;;;;;;5031791;28;20023;-75
2024/01/13 09:43:14;;;;;;;;;;;;;;;;;;5030172;28;19956;-75
2024/01/13 09:45:39;;;;;;;;;;;;;;;;;;5025165;28;19996;-75
2024/01/13 09:48:04;;;;;;;;;;;;;;;;;;5029926;28;20377;-75
2024/01/13 09:50:29;;;;;;;;;;;;;;;;;;5028244;28;20315;-75
2024/01/13 09:52:54;;;;;;;;;;;;;;;;;;5040103;28;19928;-75
2024/01/13 09:55:19;;;;;;;;;;;;;;;;;;5046115;28;20382;-75
2024/01/13 09:57:44;;;;;;;;;;;;;;;;;;5044797;28;20382;-75
2024/01/13 10:00:09;;;;;;;;;;;;;;;;;;5044789;28;19979;-75
2024/01/13 10:02:34;;;;;;;;;;;;;;;;;;5045845;28;19920;-74
2024/01/13 10:04:59;;;;;;;;;;;;;;;;;;5041925;28;19933;-75
2024/01/13 10:07:25;;;;;;;;;;;;;;;;;;5026576;28;20273;-74
2024/01/13 10:09:50;;;;;;;;;;;;;;;;;;5040011;28;19928;-74
2024/01/13 10:12:15;;;;;;;;;;;;;;;;;;5027525;28;19956;-75
2024/01/13 10:14:40;;;;;;;;;;;;;;;;;;5024285;28;19929;-74
2024/01/13 10:17:05;;;;;;;;;;;;;;;;;;5026417;28;19929;-74
2024/01/13 10:19:30;;;;;;;;;;;;;;;;;;5028715;28;19933;-75
2024/01/13 10:21:55;;;;;;;;;;;;;;;;;;5029237;28;19967;-75
2024/01/13 10:24:20;;;;;;;;;;;;;;;;;;5027358;28;19921;-75
2024/01/13 10:26:45;;;;;;;;;;;;;;;;;;5025538;28;19925;-75
2024/01/13 10:29:10;;;;;;;;;;;;;;;;;;5027384;28;20326;-75
2024/01/13 10:31:36;;;;;;;;;;;;;;;;;;5023801;28;19925;-75
2024/01/13 10:34:01;;;;;;;;;;;;;;;;;;5031356;28;19925;-75
2024/01/13 10:36:26;;;;;;;;;;;;;;;;;;5021906;28;19921;-75
2024/01/13 10:38:51;;;;;;;;;;;;;;;;;;5035277;28;20363;-74
2024/01/13 10:41:16;;;;;;;;;;;;;;;;;;5029244;28;19928;-75
2024/01/13 10:43:42;;;;;;;;;;;;;;;;;;5025429;28;19928;-75
2024/01/13 10:46:07;;;;;;;;;;;;;;;;;;5029003;28;20441;-75
2024/01/13 10:48:34;;;;;;;;;;;;;;;;;;5029679;28;19956;-75
2024/01/13 10:50:59;;;;;;;;;;;;;;;;;;5029295;28;20172;-74
2024/01/13 10:53:24;;;;;;;;;;;;;;;;;;5027052;28;19928;-75
2024/01/13 10:55:49;;;;;;;;;;;;;;;;;;5022325;28;19921;-75
2024/01/13 10:58:14;;;;;;;;;;;;;;;;;;5024554;28;19932;-76
2024/01/13 11:00:41;;;;;;;;;;;;;;;;;;5026978;28;19921;-75
2024/01/13 11:03:07;;;;;;;;;;;;;;;;;;5024306;28;19968;-76
2024/01/13 11:05:32;;;;;;;;;;;;;;;;;;5028852;28;19980;-75
2024/01/13 11:07:57;;;;;;;;;;;;;;;;;;5024218;28;19925;-75
2024/01/13 11:10:22;;;;;;;;;;;;;;;;;;5022301;28;19932;-75
2024/01/13 11:12:47;;;;;;;;;;;;;;;;;;5027356;28;19956;-75
2024/01/13 11:15:12;;;;;;;;;;;;;;;;;;5026401;28;20403;-76
2024/01/13 11:17:38;;;;;;;;;;;;;;;;;;5027613;28;20271;-75
2024/01/13 11:20:03;;;;;;;;;;;;;;;;;;5026482;28;19925;-75
2024/01/13 11:22:28;;;;;;;;;;;;;;;;;;5035325;28;19948;-75
2024/01/13 11:24:53;;;;;;;;;;;;;;;;;;5022609;28;19958;-76
2024/01/13 11:27:18;;;;;;;;;;;;;;;;;;5026580;28;20015;-75
2024/01/13 11:29:43;;;;;;;;;;;;;;;;;;5023792;28;19921;-76
2024/01/13 11:32:08;;;;;;;;;;;;;;;;;;5025504;28;19992;-75
2024/01/13 11:34:33;;;;;;;;;;;;;;;;;;5021393;28;20309;-75
2024/01/13 11:36:59;;;;;;;;;;;;;;;;;;5028917;28;20366;-75
2024/01/13 11:39:24;;;;;;;;;;;;;;;;;;5027188;28;19932;-75
2024/01/13 11:41:50;;;;;;;;;;;;;;;;;;5025676;28;19975;-75
2024/01/13 11:44:15;;;;;;;;;;;;;;;;;;5023729;28;19965;-76
2024/01/13 11:46:40;;;;;;;;;;;;;;;;;;5032985;28;20407;-75
2024/01/13 11:49:05;;;;;;;;;;;;;;;;;;5020154;28;19928;-75
2024/01/13 11:51:30;;;;;;;;;;;;;;;;;;5026366;28;20140;-75
2024/01/13 11:53:56;;;;;;;;;;;;;;;;;;5027597;28;19921;-74
2024/01/13 11:56:21;;;;;;;;;;;;;;;;;;5036546;28;19988;-75
2024/01/13 11:58:46;;;;;;;;;;;;;;;;;;5024569;28;20020;-75
2024/01/13 12:01:12;;;;;;;;;;;;;;;;;;5026413;28;19988;-75
2024/01/13 12:03:37;;;;;;;;;;;;;;;;;;5027025;28;20000;-76
2024/01/13 12:06:03;;;;;;;;;;;;;;;;;;5024079;28;19925;-76
2024/01/13 12:08:28;;;;;;;;;;;;;;;;;;5017950;28;20059;-75
2024/01/13 12:10:53;;;;;;;;;;;;;;;;;;5029507;28;20004;-75
2024/01/13 12:13:19;;;;;;;;;;;;;;;;;;5041510;28;20393;-75
2024/01/13 12:15:47;;;;;;;;;;;;;;;;;;5018843;28;20413;-75
2024/01/13 12:18:12;;;;;;;;;;;;;;;;;;5024014;28;19928;-75
2024/01/13 12:20:37;;;;;;;;;;;;;;;;;;5026882;28;19921;-75
2024/01/13 12:23:02;;;;;;;;;;;;;;;;;;5023882;28;19921;-75
2024/01/13 12:25:27;;;;;;;;;;;;;;;;;;5027315;28;19929;-77
2024/01/13 12:27:52;;;;;;;;;;;;;;;;;;5021286;28;19917;-77
2024/01/13 12:30:17;;;;;;;;;;;;;;;;;;5016880;28;19926;-77
2024/01/13 12:32:43;;;;;;;;;;;;;;;;;;5016170;28;19968;-77
2024/01/13 12:35:08;;;;;;;;;;;;;;;;;;5031271;28;19979;-77
2024/01/13 12:37:33;;;;;;;;;;;;;;;;;;5032146;28;19921;-77
2024/01/13 12:39:58;;;;;;;;;;;;;;;;;;5026675;28;20337;-77
2024/01/13 12:42:23;;;;;;;;;;;;;;;;;;5040273;28;20561;-79
2024/01/13 12:44:48;;;;;;;;;;;;;;;;;;5051887;28;19929;-75
2024/01/13 12:47:13;;;;;;;;;;;;;;;;;;5030456;28;19917;-76
2024/01/13 12:49:38;;;;;;;;;;;;;;;;;;5027481;28;20397;-77
2024/01/13 12:52:06;;;;;;;;;;;;;;;;;;5025070;28;19928;-77
2024/01/13 12:54:33;;;;;;;;;;;;;;;;;;5052169;28;19928;-76
2024/01/13 12:56:58;;;;;;;;;;;;;;;;;;5053108;28;19917;-77
2024/01/13 12:59:24;;;;;;;;;;;;;;;;;;5042370;28;20015;-77
2024/01/13 13:01:49;;;;;;;;;;;;;;;;;;5044311;28;19996;-76
2024/01/13 13:04:14;;;;;;;;;;;;;;;;;;5049382;28;19935;-77
2024/01/13 13:06:40;;;;;;;;;;;;;;;;;;5048660;28;20028;-77
2024/01/13 13:09:05;;;;;;;;;;;;;;;;;;5048169;28;20378;-77
2024/01/13 13:11:30;;;;;;;;;;;;;;;;;;5048311;28;19925;-77
2024/01/13 13:13:55;;;;;;;;;;;;;;;;;;5052615;28;19921;-77
2024/01/13 13:16:21;;;;;;;;;;;;;;;;;;5052250;28;20300;-77
2024/01/13 13:18:47;;;;;;;;;;;;;;;;;;5055592;28;19924;-77
2024/01/13 13:21:13;;;;;;;;;;;;;;;;;;5049009;28;19928;-77
2024/01/13 13:23:38;;;;;;;;;;;;;;;;;;5046555;28;19921;-77
2024/01/13 13:26:03;;;;;;;;;;;;;;;;;;5043342;28;19936;-77
2024/01/13 13:28:28;;;;;;;;;;;;;;;;;;5048706;28;19921;-77
2024/01/13 13:30:53;;;;;;;;;;;;;;;;;;5046708;28;19991;-77
2024/01/13 13:33:19;;;;;;;;;;;;;;;;;;5047506;28;19927;-77
2024/01/13 13:35:44;;;;;;;;;;;;;;;;;;5048623;28;19921;-77
2024/01/13 13:38:09;;;;;;;;;;;;;;;;;;5047989;28;20388;-77
2024/01/13 13:40:36;;;;;;;;;;;;;;;;;;5040758;28;19921;-77
2024/01/13 13:43:01;;;;;;;;;;;;;;;;;;5040477;28;19936;-77
2024/01/13 13:45:27;;;;;;;;;;;;;;;;;;5049286;28;20160;-77
2024/01/13 13:47:52;;;;;;;;;;;;;;;;;;5048628;28;20125;-76
2024/01/13 13:50:17;;;;;;;;;;;;;;;;;;5047764;28;20020;-75
2024/01/13 13:52:42;;;;;;;;;;;;;;;;;;5045879;28;20353;-76
2024/01/13 13:55:08;;;;;;;;;;;;;;;;;;5043328;28;19920;-75
2024/01/13 13:57:33;;;;;;;;;;;;;;;;;;5051277;28;20011;-76
2024/01/13 13:59:58;;;;;;;;;;;;;;;;;;5051291;28;19931;-76
2024/01/13 14:02:23;;;;;;;;;;;;;;;;;;5050211;28;19927;-76
2024/01/13 14:04:48;;;;;;;;;;;;;;;;;;5050718;28;19917;-75
2024/01/13 14:07:13;;;;;;;;;;;;;;;;;;5049198;28;20278;-76
2024/01/13 14:09:38;;;;;;;;;;;;;;;;;;5049241;28;19920;-76
2024/01/13 14:12:03;;;;;;;;;;;;;;;;;;5049881;28;19928;-76
2024/01/13 14:14:28;;;;;;;;;;;;;;;;;;5049185;28;20220;-76
2024/01/13 14:16:53;;;;;;;;;;;;;;;;;;5047961;28;19963;-76
2024/01/13 14:19:18;;;;;;;;;;;;;;;;;;5049553;28;19929;-75
2024/01/13 14:21:44;;;;;;;;;;;;;;;;;;5049502;28;19920;-76
2024/01/13 14:24:09;;;;;;;;;;;;;;;;;;5047523;28;19921;-76
2024/01/13 14:26:34;;;;;;;;;;;;;;;;;;5050474;28;20329;-76
2024/01/13 14:28:59;;;;;;;;;;;;;;;;;;5050703;28;19921;-75
2024/01/13 14:31:24;;;;;;;;;;;;;;;;;;5049888;28;19939;-75
2024/01/13 14:33:49;;;;;;;;;;;;;;;;;;5050653;28;20008;-75
2024/01/13 14:36:14;;;;;;;;;;;;;;;;;;5050607;28;20425;-77
2024/01/13 14:38:39;;;;;;;;;;;;;;;;;;5050766;28;19924;-77
2024/01/13 14:41:05;;;;;;;;;;;;;;;;;;5050031;28;19921;-76
2024/01/13 14:43:30;;;;;;;;;;;;;;;;;;5050709;28;19920;-76
2024/01/13 14:45:55;;;;;;;;;;;;;;;;;;5048772;28;19925;-76
2024/01/13 14:48:20;;;;;;;;;;;;;;;;;;5046979;28;20386;-77
2024/01/13 14:50:45;;;;;;;;;;;;;;;;;;5050159;28;19921;-77
2024/01/13 14:53:10;;;;;;;;;;;;;;;;;;5046713;28;19935;-76
2024/01/13 14:55:36;;;;;;;;;;;;;;;;;;5049721;28;19979;-76
2024/01/13 14:58:01;;;;;;;;;;;;;;;;;;5049025;28;19924;-77
2024/01/13 15:00:26;;;;;;;;;;;;;;;;;;5045995;28;19936;-77
2024/01/13 15:02:51;;;;;;;;;;;;;;;;;;5048905;28;20397;-77
2024/01/13 15:05:16;;;;;;;;;;;;;;;;;;5048121;28;19925;-76
2024/01/13 15:07:41;;;;;;;;;;;;;;;;;;5046743;28;19975;-76
2024/01/13 15:10:06;;;;;;;;;;;;;;;;;;5040225;28;19928;-77
2024/01/13 15:12:31;;;;;;;;;;;;;;;;;;5044499;28;19920;-77
2024/01/13 15:14:56;;;;;;;;;;;;;;;;;;5047306;28;19936;-77
2024/01/13 15:17:22;;;;;;;;;;;;;;;;;;5046407;28;19968;-77
2024/01/13 15:19:47;;;;;;;;;;;;;;;;;;5042784;28;20448;-77
2024/01/13 15:22:12;;;;;;;;;;;;;;;;;;5044273;28;20022;-77
2024/01/13 15:24:37;;;;;;;;;;;;;;;;;;5046545;28;19929;-77
2024/01/13 15:27:04;;;;;;;;;;;;;;;;;;5047623;28;21352;-76
2024/01/13 15:29:29;;;;;;;;;;;;;;;;;;5047585;28;20229;-77
2024/01/13 15:31:54;;;;;;;;;;;;;;;;;;5055275;28;20335;-77
2024/01/13 15:34:19;;;;;;;;;;;;;;;;;;5041597;28;19917;-77
2024/01/13 15:36:44;;;;;;;;;;;;;;;;;;5043522;28;19921;-77
2024/01/13 15:39:12;;;;;;;;;;;;;;;;;;5038010;28;20381;-77
2024/01/13 15:41:37;;;;;;;;;;;;;;;;;;5046312;28;19916;-77
2024/01/13 15:44:02;;;;;;;;;;;;;;;;;;5044126;28;20000;-77
2024/01/13 15:46:28;;;;;;;;;;;;;;;;;;5036173;28;19963;-77
2024/01/13 15:48:53;;;;;;;;;;;;;;;;;;5048788;28;19927;-76
2024/01/13 15:51:18;;;;;;;;;;;;;;;;;;5047692;28;19921;-77
2024/01/13 15:53:43;;;;;;;;;;;;;;;;;;5046540;28;19943;-76
2024/01/13 15:56:09;;;;;;;;;;;;;;;;;;5047498;28;20057;-77
2024/01/13 15:58:35;;;;;;;;;;;;;;;;;;5045561;28;19921;-76
2024/01/13 16:01:00;;;;;;;;;;;;;;;;;;5044744;28;19927;-77
2024/01/13 16:03:25;;;;;;;;;;;;;;;;;;5048957;28;19917;-77
2024/01/13 16:05:50;;;;;;;;;;;;;;;;;;5048606;28;19925;-76
2024/01/13 16:08:15;;;;;;;;;;;;;;;;;;5043635;28;19975;-77
2024/01/13 16:10:40;;;;;;;;;;;;;;;;;;5049565;28;20017;-77
2024/01/13 16:13:05;;;;;;;;;;;;;;;;;;5046442;28;20340;-77
2024/01/13 16:15:30;;;;;;;;;;;;;;;;;;5052301;28;19917;-77
2024/01/13 16:17:56;;;;;;;;;;;;;;;;;;5053255;28;19991;-77
2024/01/13 16:20:21;;;;;;;;;;;;;;;;;;5056296;28;19924;-77
2024/01/13 16:22:47;;;;;;;;;;;;;;;;;;5051046;28;20405;-77
2024/01/13 16:25:12;;;;;;;;;;;;;;;;;;5047868;28;19972;-77
2024/01/13 16:27:37;;;;;;;;;;;;;;;;;;5051006;28;19931;-77
2024/01/13 16:30:02;;;;;;;;;;;;;;;;;;5044256;28;20293;-77